sensor_id;sensor_type;location;lat;lon;timestamp;P1;durP1;ratioP1;P2;durP2;ratioP2
34146;SDS011;20423;49.448;9.056;2022-12-18T00:02:01;96.32;;;33.00;;
34146;SDS011;20423;49.448;9.056;2022-12-18T00:04:27;100.97;;;35.85;;
34146;SDS011;20423;49.448;9.056;2022-12-18T00:09:40;99.78;;;35.00;;
34146;SDS011;20423;49.448;9.056;2022-12-18T00:12:06;105.47;;;35.33;;
34146;SDS011;20423;49.448;9.056;2022-12-18T00:14:32;105.22;;;36.05;;
34146;SDS011;20423;49.448;9.056;2022-12-18T00:16:58;105.68;;;34.38;;
34146;SDS011;20423;49.448;9.056;2022-12-18T00:19:25;98.00;;;35.10;;
34146;SDS011;20423;49.448;9.056;2022-12-18T00:21:51;101.90;;;35.80;;
34146;SDS011;20423;49.448;9.056;2022-12-18T00:24:17;94.50;;;36.00;;
34146;SDS011;20423;49.448;9.056;2022-12-18T00:26:43;92.50;;;35.72;;
34146;SDS011;20423;49.448;9.056;2022-12-18T00:29:11;103.97;;;36.78;;
34146;SDS011;20423;49.448;9.056;2022-12-18T00:31:39;115.20;;;37.90;;
34146;SDS011;20423;49.448;9.056;2022-12-18T00:34:05;106.45;;;37.92;;
34146;SDS011;20423;49.448;9.056;2022-12-18T00:36:31;109.45;;;37.28;;
34146;SDS011;20423;49.448;9.056;2022-12-18T00:38:59;120.70;;;35.67;;
34146;SDS011;20423;49.448;9.056;2022-12-18T00:41:27;99.60;;;36.75;;
34146;SDS011;20423;49.448;9.056;2022-12-18T00:44:12;107.22;;;36.95;;
34146;SDS011;20423;49.448;9.056;2022-12-18T00:46:39;108.10;;;36.15;;
34146;SDS011;20423;49.448;9.056;2022-12-18T00:49:06;101.00;;;36.72;;
34146;SDS011;20423;49.448;9.056;2022-12-18T00:51:32;112.07;;;37.63;;
34146;SDS011;20423;49.448;9.056;2022-12-18T00:53:58;104.75;;;37.45;;
34146;SDS011;20423;49.448;9.056;2022-12-18T00:56:23;103.10;;;37.13;;
34146;SDS011;20423;49.448;9.056;2022-12-18T00:58:49;106.25;;;37.65;;
34146;SDS011;20423;49.448;9.056;2022-12-18T01:01:15;105.22;;;37.05;;
34146;SDS011;20423;49.448;9.056;2022-12-18T01:03:41;102.93;;;37.13;;
34146;SDS011;20423;49.448;9.056;2022-12-18T01:06:07;106.90;;;38.25;;
34146;SDS011;20423;49.448;9.056;2022-12-18T01:08:35;114.60;;;40.38;;
34146;SDS011;20423;49.448;9.056;2022-12-18T01:11:06;115.57;;;40.70;;
34146;SDS011;20423;49.448;9.056;2022-12-18T01:13:33;106.60;;;39.25;;
34146;SDS011;20423;49.448;9.056;2022-12-18T01:15:59;111.80;;;39.20;;
34146;SDS011;20423;49.448;9.056;2022-12-18T01:18:24;118.50;;;40.95;;
34146;SDS011;20423;49.448;9.056;2022-12-18T01:20:50;112.93;;;40.35;;
34146;SDS011;20423;49.448;9.056;2022-12-18T01:23:15;119.90;;;42.35;;
34146;SDS011;20423;49.448;9.056;2022-12-18T01:25:41;122.65;;;42.22;;
34146;SDS011;20423;49.448;9.056;2022-12-18T01:28:08;117.30;;;44.53;;
34146;SDS011;20423;49.448;9.056;2022-12-18T01:30:34;104.75;;;39.63;;
34146;SDS011;20423;49.448;9.056;2022-12-18T01:33:00;126.20;;;42.50;;
34146;SDS011;20423;49.448;9.056;2022-12-18T01:35:26;121.15;;;41.22;;
34146;SDS011;20423;49.448;9.056;2022-12-18T01:38:07;125.57;;;43.22;;
34146;SDS011;20423;49.448;9.056;2022-12-18T01:40:33;123.38;;;41.67;;
34146;SDS011;20423;49.448;9.056;2022-12-18T01:42:59;129.32;;;46.35;;
34146;SDS011;20423;49.448;9.056;2022-12-18T01:45:26;122.93;;;41.42;;
34146;SDS011;20423;49.448;9.056;2022-12-18T01:53:22;135.40;;;46.05;;
34146;SDS011;20423;49.448;9.056;2022-12-18T01:55:50;136.45;;;45.70;;
34146;SDS011;20423;49.448;9.056;2022-12-18T01:58:31;136.10;;;45.83;;
34146;SDS011;20423;49.448;9.056;2022-12-18T02:01:04;137.82;;;45.97;;
34146;SDS011;20423;49.448;9.056;2022-12-18T02:03:31;131.85;;;47.28;;
34146;SDS011;20423;49.448;9.056;2022-12-18T02:08:55;144.98;;;49.70;;
34146;SDS011;20423;49.448;9.056;2022-12-18T02:11:34;132.18;;;45.20;;
34146;SDS011;20423;49.448;9.056;2022-12-18T02:14:17;138.93;;;47.45;;
34146;SDS011;20423;49.448;9.056;2022-12-18T02:19:52;130.02;;;43.03;;
34146;SDS011;20423;49.448;9.056;2022-12-18T02:28:17;122.13;;;45.85;;
34146;SDS011;20423;49.448;9.056;2022-12-18T02:30:47;125.80;;;44.58;;
34146;SDS011;20423;49.448;9.056;2022-12-18T02:33:15;130.65;;;43.63;;
34146;SDS011;20423;49.448;9.056;2022-12-18T02:35:44;122.53;;;42.70;;
34146;SDS011;20423;49.448;9.056;2022-12-18T02:38:11;111.50;;;40.42;;
34146;SDS011;20423;49.448;9.056;2022-12-18T02:40:40;117.13;;;43.13;;
34146;SDS011;20423;49.448;9.056;2022-12-18T02:43:08;124.95;;;43.25;;
34146;SDS011;20423;49.448;9.056;2022-12-18T02:45:45;115.40;;;41.58;;
34146;SDS011;20423;49.448;9.056;2022-12-18T02:48:12;117.70;;;43.80;;
34146;SDS011;20423;49.448;9.056;2022-12-18T02:50:44;128.52;;;43.45;;
34146;SDS011;20423;49.448;9.056;2022-12-18T02:53:17;132.57;;;45.78;;
34146;SDS011;20423;49.448;9.056;2022-12-18T02:58:34;134.43;;;44.00;;
34146;SDS011;20423;49.448;9.056;2022-12-18T03:01:15;140.52;;;46.97;;
34146;SDS011;20423;49.448;9.056;2022-12-18T03:03:47;138.98;;;47.22;;
34146;SDS011;20423;49.448;9.056;2022-12-18T03:06:21;134.43;;;46.60;;
34146;SDS011;20423;49.448;9.056;2022-12-18T03:08:54;139.73;;;47.50;;
34146;SDS011;20423;49.448;9.056;2022-12-18T03:11:26;138.45;;;45.53;;
34146;SDS011;20423;49.448;9.056;2022-12-18T03:14:15;138.23;;;44.97;;
34146;SDS011;20423;49.448;9.056;2022-12-18T03:19:15;132.82;;;45.90;;
34146;SDS011;20423;49.448;9.056;2022-12-18T03:21:49;138.75;;;42.85;;
34146;SDS011;20423;49.448;9.056;2022-12-18T03:24:22;130.02;;;43.50;;
34146;SDS011;20423;49.448;9.056;2022-12-18T03:26:52;129.52;;;46.33;;
34146;SDS011;20423;49.448;9.056;2022-12-18T03:29:24;123.63;;;43.58;;
34146;SDS011;20423;49.448;9.056;2022-12-18T03:31:58;133.52;;;46.80;;
34146;SDS011;20423;49.448;9.056;2022-12-18T03:34:38;122.47;;;42.75;;
34146;SDS011;20423;49.448;9.056;2022-12-18T03:37:10;135.15;;;45.45;;
34146;SDS011;20423;49.448;9.056;2022-12-18T03:39:36;131.13;;;44.08;;
34146;SDS011;20423;49.448;9.056;2022-12-18T03:47:40;119.15;;;41.25;;
34146;SDS011;20423;49.448;9.056;2022-12-18T03:50:25;112.18;;;39.97;;
34146;SDS011;20423;49.448;9.056;2022-12-18T03:55:48;129.05;;;42.70;;
34146;SDS011;20423;49.448;9.056;2022-12-18T03:58:16;117.57;;;41.05;;
34146;SDS011;20423;49.448;9.056;2022-12-18T04:00:53;125.35;;;42.28;;
34146;SDS011;20423;49.448;9.056;2022-12-18T04:03:21;118.60;;;41.17;;
34146;SDS011;20423;49.448;9.056;2022-12-18T04:05:49;129.63;;;43.63;;
34146;SDS011;20423;49.448;9.056;2022-12-18T04:08:19;132.00;;;44.22;;
34146;SDS011;20423;49.448;9.056;2022-12-18T04:10:55;127.47;;;42.10;;
34146;SDS011;20423;49.448;9.056;2022-12-18T04:13:24;133.90;;;42.20;;
34146;SDS011;20423;49.448;9.056;2022-12-18T04:15:54;130.30;;;42.20;;
34146;SDS011;20423;49.448;9.056;2022-12-18T04:18:21;127.03;;;41.05;;
34146;SDS011;20423;49.448;9.056;2022-12-18T04:20:47;110.10;;;36.40;;
34146;SDS011;20423;49.448;9.056;2022-12-18T04:23:23;121.78;;;39.63;;
34146;SDS011;20423;49.448;9.056;2022-12-18T04:25:49;122.63;;;42.55;;
34146;SDS011;20423;49.448;9.056;2022-12-18T04:28:25;123.18;;;37.80;;
34146;SDS011;20423;49.448;9.056;2022-12-18T04:30:51;125.18;;;39.65;;
34146;SDS011;20423;49.448;9.056;2022-12-18T04:33:18;122.88;;;40.40;;
34146;SDS011;20423;49.448;9.056;2022-12-18T04:35:45;115.75;;;41.85;;
34146;SDS011;20423;49.448;9.056;2022-12-18T04:38:12;117.38;;;40.15;;
34146;SDS011;20423;49.448;9.056;2022-12-18T04:40:38;116.85;;;40.15;;
34146;SDS011;20423;49.448;9.056;2022-12-18T04:43:11;133.27;;;41.58;;
34146;SDS011;20423;49.448;9.056;2022-12-18T04:45:36;112.97;;;40.45;;
34146;SDS011;20423;49.448;9.056;2022-12-18T04:48:02;109.10;;;36.20;;
34146;SDS011;20423;49.448;9.056;2022-12-18T04:50:29;113.68;;;39.38;;
34146;SDS011;20423;49.448;9.056;2022-12-18T04:52:55;110.28;;;38.22;;
34146;SDS011;20423;49.448;9.056;2022-12-18T04:55:21;124.75;;;40.70;;
34146;SDS011;20423;49.448;9.056;2022-12-18T04:57:49;112.22;;;38.45;;
34146;SDS011;20423;49.448;9.056;2022-12-18T05:00:15;117.70;;;39.80;;
34146;SDS011;20423;49.448;9.056;2022-12-18T05:02:41;117.05;;;38.95;;
34146;SDS011;20423;49.448;9.056;2022-12-18T05:05:07;120.60;;;39.92;;
34146;SDS011;20423;49.448;9.056;2022-12-18T05:07:33;125.97;;;37.65;;
34146;SDS011;20423;49.448;9.056;2022-12-18T05:09:59;122.07;;;40.83;;
34146;SDS011;20423;49.448;9.056;2022-12-18T05:12:24;119.90;;;40.47;;
34146;SDS011;20423;49.448;9.056;2022-12-18T05:14:51;126.60;;;42.38;;
34146;SDS011;20423;49.448;9.056;2022-12-18T05:17:16;119.72;;;40.15;;
34146;SDS011;20423;49.448;9.056;2022-12-18T05:19:42;123.57;;;39.83;;
34146;SDS011;20423;49.448;9.056;2022-12-18T05:22:09;118.85;;;38.63;;
34146;SDS011;20423;49.448;9.056;2022-12-18T05:24:34;104.50;;;36.97;;
34146;SDS011;20423;49.448;9.056;2022-12-18T05:27:00;111.25;;;38.90;;
34146;SDS011;20423;49.448;9.056;2022-12-18T05:29:26;111.80;;;38.70;;
34146;SDS011;20423;49.448;9.056;2022-12-18T05:31:52;117.97;;;39.83;;
34146;SDS011;20423;49.448;9.056;2022-12-18T05:34:17;114.13;;;38.90;;
34146;SDS011;20423;49.448;9.056;2022-12-18T05:36:43;106.57;;;35.75;;
34146;SDS011;20423;49.448;9.056;2022-12-18T05:39:09;123.03;;;39.20;;
34146;SDS011;20423;49.448;9.056;2022-12-18T05:41:34;113.65;;;38.38;;
34146;SDS011;20423;49.448;9.056;2022-12-18T05:44:00;120.60;;;39.95;;
34146;SDS011;20423;49.448;9.056;2022-12-18T05:46:26;110.05;;;38.65;;
34146;SDS011;20423;49.448;9.056;2022-12-18T05:48:51;116.35;;;38.63;;
34146;SDS011;20423;49.448;9.056;2022-12-18T05:51:18;120.30;;;40.83;;
34146;SDS011;20423;49.448;9.056;2022-12-18T05:53:46;105.47;;;38.00;;
34146;SDS011;20423;49.448;9.056;2022-12-18T05:56:16;122.20;;;40.67;;
34146;SDS011;20423;49.448;9.056;2022-12-18T05:58:43;127.57;;;38.17;;
34146;SDS011;20423;49.448;9.056;2022-12-18T06:01:20;119.57;;;39.38;;
34146;SDS011;20423;49.448;9.056;2022-12-18T06:03:48;122.13;;;37.22;;
34146;SDS011;20423;49.448;9.056;2022-12-18T06:06:18;122.35;;;39.90;;
34146;SDS011;20423;49.448;9.056;2022-12-18T06:08:45;107.00;;;38.20;;
34146;SDS011;20423;49.448;9.056;2022-12-18T06:11:11;126.35;;;40.05;;
34146;SDS011;20423;49.448;9.056;2022-12-18T06:13:37;137.38;;;40.97;;
34146;SDS011;20423;49.448;9.056;2022-12-18T06:16:06;133.32;;;40.10;;
34146;SDS011;20423;49.448;9.056;2022-12-18T06:18:33;137.32;;;41.15;;
34146;SDS011;20423;49.448;9.056;2022-12-18T06:21:02;131.82;;;40.55;;
34146;SDS011;20423;49.448;9.056;2022-12-18T06:23:27;130.45;;;40.03;;
34146;SDS011;20423;49.448;9.056;2022-12-18T06:25:53;127.25;;;40.80;;
34146;SDS011;20423;49.448;9.056;2022-12-18T06:28:19;126.32;;;39.78;;
34146;SDS011;20423;49.448;9.056;2022-12-18T06:30:45;137.80;;;41.15;;
34146;SDS011;20423;49.448;9.056;2022-12-18T06:33:12;125.38;;;38.55;;
34146;SDS011;20423;49.448;9.056;2022-12-18T06:35:38;136.07;;;40.75;;
34146;SDS011;20423;49.448;9.056;2022-12-18T06:38:03;120.07;;;38.35;;
34146;SDS011;20423;49.448;9.056;2022-12-18T06:40:29;129.20;;;41.65;;
34146;SDS011;20423;49.448;9.056;2022-12-18T06:42:55;114.85;;;38.35;;
34146;SDS011;20423;49.448;9.056;2022-12-18T06:45:21;118.78;;;39.65;;
34146;SDS011;20423;49.448;9.056;2022-12-18T06:47:46;128.18;;;39.22;;
34146;SDS011;20423;49.448;9.056;2022-12-18T06:50:12;124.70;;;40.00;;
34146;SDS011;20423;49.448;9.056;2022-12-18T06:52:39;123.00;;;39.58;;
34146;SDS011;20423;49.448;9.056;2022-12-18T06:55:06;134.68;;;40.38;;
34146;SDS011;20423;49.448;9.056;2022-12-18T06:57:35;123.00;;;41.07;;
34146;SDS011;20423;49.448;9.056;2022-12-18T07:00:01;126.63;;;39.88;;
34146;SDS011;20423;49.448;9.056;2022-12-18T07:02:28;132.50;;;41.25;;
34146;SDS011;20423;49.448;9.056;2022-12-18T07:04:53;140.05;;;40.00;;
34146;SDS011;20423;49.448;9.056;2022-12-18T07:07:19;132.27;;;42.72;;
34146;SDS011;20423;49.448;9.056;2022-12-18T07:09:45;142.32;;;43.63;;
34146;SDS011;20423;49.448;9.056;2022-12-18T07:12:10;139.85;;;43.53;;
34146;SDS011;20423;49.448;9.056;2022-12-18T07:14:36;136.18;;;42.05;;
34146;SDS011;20423;49.448;9.056;2022-12-18T07:17:02;136.60;;;42.10;;
34146;SDS011;20423;49.448;9.056;2022-12-18T07:19:28;141.00;;;43.58;;
34146;SDS011;20423;49.448;9.056;2022-12-18T07:21:54;153.05;;;43.08;;
34146;SDS011;20423;49.448;9.056;2022-12-18T07:27:07;136.48;;;43.08;;
34146;SDS011;20423;49.448;9.056;2022-12-18T07:29:33;136.18;;;42.33;;
34146;SDS011;20423;49.448;9.056;2022-12-18T07:31:59;137.27;;;41.88;;
34146;SDS011;20423;49.448;9.056;2022-12-18T07:34:25;126.43;;;44.20;;
34146;SDS011;20423;49.448;9.056;2022-12-18T07:36:51;129.27;;;41.78;;
34146;SDS011;20423;49.448;9.056;2022-12-18T07:39:16;163.32;;;49.90;;
34146;SDS011;20423;49.448;9.056;2022-12-18T07:41:42;143.48;;;45.70;;
34146;SDS011;20423;49.448;9.056;2022-12-18T07:44:11;130.93;;;42.88;;
34146;SDS011;20423;49.448;9.056;2022-12-18T07:46:37;157.10;;;45.08;;
34146;SDS011;20423;49.448;9.056;2022-12-18T07:49:03;141.73;;;42.88;;
34146;SDS011;20423;49.448;9.056;2022-12-18T07:51:28;156.05;;;46.58;;
34146;SDS011;20423;49.448;9.056;2022-12-18T07:53:54;144.90;;;46.78;;
34146;SDS011;20423;49.448;9.056;2022-12-18T07:56:20;145.52;;;42.92;;
34146;SDS011;20423;49.448;9.056;2022-12-18T07:58:46;139.07;;;42.65;;
34146;SDS011;20423;49.448;9.056;2022-12-18T08:01:12;144.52;;;44.22;;
34146;SDS011;20423;49.448;9.056;2022-12-18T08:03:38;146.50;;;42.60;;
34146;SDS011;20423;49.448;9.056;2022-12-18T08:06:05;139.07;;;44.33;;
34146;SDS011;20423;49.448;9.056;2022-12-18T08:08:33;158.55;;;47.05;;
34146;SDS011;20423;49.448;9.056;2022-12-18T08:11:00;144.00;;;41.22;;
34146;SDS011;20423;49.448;9.056;2022-12-18T08:13:35;131.40;;;43.78;;
34146;SDS011;20423;49.448;9.056;2022-12-18T08:16:02;152.25;;;44.00;;
34146;SDS011;20423;49.448;9.056;2022-12-18T08:18:35;157.75;;;45.30;;
34146;SDS011;20423;49.448;9.056;2022-12-18T08:21:09;157.63;;;45.97;;
34146;SDS011;20423;49.448;9.056;2022-12-18T08:23:48;139.23;;;42.13;;
34146;SDS011;20423;49.448;9.056;2022-12-18T08:26:14;151.43;;;44.42;;
34146;SDS011;20423;49.448;9.056;2022-12-18T08:28:40;154.52;;;44.67;;
34146;SDS011;20423;49.448;9.056;2022-12-18T08:31:06;130.07;;;42.75;;
34146;SDS011;20423;49.448;9.056;2022-12-18T08:33:32;146.63;;;43.03;;
34146;SDS011;20423;49.448;9.056;2022-12-18T08:35:59;149.48;;;44.10;;
34146;SDS011;20423;49.448;9.056;2022-12-18T08:38:25;145.57;;;39.20;;
34146;SDS011;20423;49.448;9.056;2022-12-18T08:43:30;140.50;;;39.28;;
34146;SDS011;20423;49.448;9.056;2022-12-18T08:46:17;168.30;;;40.65;;
34146;SDS011;20423;49.448;9.056;2022-12-18T08:48:43;134.48;;;39.17;;
34146;SDS011;20423;49.448;9.056;2022-12-18T08:51:10;170.48;;;41.00;;
34146;SDS011;20423;49.448;9.056;2022-12-18T08:53:36;133.98;;;39.63;;
34146;SDS011;20423;49.448;9.056;2022-12-18T08:56:02;149.10;;;44.20;;
34146;SDS011;20423;49.448;9.056;2022-12-18T08:58:31;142.40;;;39.25;;
34146;SDS011;20423;49.448;9.056;2022-12-18T09:01:00;148.25;;;41.55;;
34146;SDS011;20423;49.448;9.056;2022-12-18T09:03:27;151.00;;;41.60;;
34146;SDS011;20423;49.448;9.056;2022-12-18T09:05:52;155.98;;;43.40;;
34146;SDS011;20423;49.448;9.056;2022-12-18T09:08:18;144.00;;;42.95;;
34146;SDS011;20423;49.448;9.056;2022-12-18T09:10:44;129.60;;;39.85;;
34146;SDS011;20423;49.448;9.056;2022-12-18T09:13:11;162.73;;;42.63;;
34146;SDS011;20423;49.448;9.056;2022-12-18T09:15:48;148.60;;;43.22;;
34146;SDS011;20423;49.448;9.056;2022-12-18T09:18:16;137.07;;;38.50;;
34146;SDS011;20423;49.448;9.056;2022-12-18T09:20:43;164.20;;;44.53;;
34146;SDS011;20423;49.448;9.056;2022-12-18T09:23:09;142.13;;;39.25;;
34146;SDS011;20423;49.448;9.056;2022-12-18T09:25:34;143.27;;;40.78;;
34146;SDS011;20423;49.448;9.056;2022-12-18T09:28:02;141.95;;;39.95;;
34146;SDS011;20423;49.448;9.056;2022-12-18T09:30:29;173.23;;;45.72;;
34146;SDS011;20423;49.448;9.056;2022-12-18T09:32:55;150.50;;;44.35;;
34146;SDS011;20423;49.448;9.056;2022-12-18T09:38:16;132.35;;;39.47;;
34146;SDS011;20423;49.448;9.056;2022-12-18T09:40:50;135.60;;;41.72;;
34146;SDS011;20423;49.448;9.056;2022-12-18T09:46:41;141.70;;;38.13;;
34146;SDS011;20423;49.448;9.056;2022-12-18T09:49:13;139.15;;;37.88;;
34146;SDS011;20423;49.448;9.056;2022-12-18T09:51:45;127.60;;;38.70;;
34146;SDS011;20423;49.448;9.056;2022-12-18T09:54:23;140.73;;;42.15;;
34146;SDS011;20423;49.448;9.056;2022-12-18T09:56:55;128.65;;;38.50;;
34146;SDS011;20423;49.448;9.056;2022-12-18T09:59:23;130.02;;;38.17;;
34146;SDS011;20423;49.448;9.056;2022-12-18T10:01:51;121.18;;;37.10;;
34146;SDS011;20423;49.448;9.056;2022-12-18T10:04:17;135.80;;;38.88;;
34146;SDS011;20423;49.448;9.056;2022-12-18T10:07:01;116.28;;;38.60;;
34146;SDS011;20423;49.448;9.056;2022-12-18T10:12:09;117.82;;;35.40;;
34146;SDS011;20423;49.448;9.056;2022-12-18T10:14:49;117.60;;;38.55;;
34146;SDS011;20423;49.448;9.056;2022-12-18T10:22:26;106.30;;;34.05;;
34146;SDS011;20423;49.448;9.056;2022-12-18T10:25:06;112.45;;;36.78;;
34146;SDS011;20423;49.448;9.056;2022-12-18T10:27:52;110.78;;;36.78;;
34146;SDS011;20423;49.448;9.056;2022-12-18T10:30:21;102.63;;;34.03;;
34146;SDS011;20423;49.448;9.056;2022-12-18T10:32:48;109.22;;;32.83;;
34146;SDS011;20423;49.448;9.056;2022-12-18T10:35:24;112.45;;;34.95;;
34146;SDS011;20423;49.448;9.056;2022-12-18T10:40:32;123.70;;;35.60;;
34146;SDS011;20423;49.448;9.056;2022-12-18T10:43:14;118.07;;;33.92;;
34146;SDS011;20423;49.448;9.056;2022-12-18T10:45:41;110.60;;;35.28;;
34146;SDS011;20423;49.448;9.056;2022-12-18T10:48:18;122.32;;;32.70;;
34146;SDS011;20423;49.448;9.056;2022-12-18T10:50:46;108.85;;;34.63;;
34146;SDS011;20423;49.448;9.056;2022-12-18T10:53:18;113.75;;;34.15;;
34146;SDS011;20423;49.448;9.056;2022-12-18T10:55:46;109.93;;;32.25;;
34146;SDS011;20423;49.448;9.056;2022-12-18T10:58:35;103.65;;;34.30;;
34146;SDS011;20423;49.448;9.056;2022-12-18T11:01:16;109.47;;;35.00;;
34146;SDS011;20423;49.448;9.056;2022-12-18T11:06:22;111.88;;;32.20;;
34146;SDS011;20423;49.448;9.056;2022-12-18T11:11:51;111.75;;;34.97;;
34146;SDS011;20423;49.448;9.056;2022-12-18T11:14:27;111.80;;;34.25;;
34146;SDS011;20423;49.448;9.056;2022-12-18T11:16:56;111.45;;;34.63;;
34146;SDS011;20423;49.448;9.056;2022-12-18T11:21:56;112.93;;;35.20;;
34146;SDS011;20423;49.448;9.056;2022-12-18T11:24:25;116.00;;;33.75;;
34146;SDS011;20423;49.448;9.056;2022-12-18T11:26:55;97.80;;;33.30;;
34146;SDS011;20423;49.448;9.056;2022-12-18T11:29:31;109.18;;;33.83;;
34146;SDS011;20423;49.448;9.056;2022-12-18T11:34:59;103.10;;;32.80;;
34146;SDS011;20423;49.448;9.056;2022-12-18T11:37:31;95.38;;;31.45;;
34146;SDS011;20423;49.448;9.056;2022-12-18T11:39:59;101.72;;;33.30;;
34146;SDS011;20423;49.448;9.056;2022-12-18T11:43:14;104.63;;;33.53;;
34146;SDS011;20423;49.448;9.056;2022-12-18T11:45:41;111.75;;;34.15;;
34146;SDS011;20423;49.448;9.056;2022-12-18T11:48:17;113.43;;;34.70;;
34146;SDS011;20423;49.448;9.056;2022-12-18T11:50:51;113.05;;;34.97;;
34146;SDS011;20423;49.448;9.056;2022-12-18T11:53:21;115.07;;;34.50;;
34146;SDS011;20423;49.448;9.056;2022-12-18T11:55:57;111.95;;;33.17;;
34146;SDS011;20423;49.448;9.056;2022-12-18T11:58:46;122.50;;;34.00;;
34146;SDS011;20423;49.448;9.056;2022-12-18T12:09:48;108.78;;;34.75;;
34146;SDS011;20423;49.448;9.056;2022-12-18T12:18:46;109.97;;;33.95;;
34146;SDS011;20423;49.448;9.056;2022-12-18T12:24:09;92.45;;;32.15;;
34146;SDS011;20423;49.448;9.056;2022-12-18T12:27:35;113.40;;;34.58;;
34146;SDS011;20423;49.448;9.056;2022-12-18T12:30:00;102.07;;;32.25;;
34146;SDS011;20423;49.448;9.056;2022-12-18T12:32:49;109.65;;;32.35;;
34146;SDS011;20423;49.448;9.056;2022-12-18T12:38:07;99.10;;;32.30;;
34146;SDS011;20423;49.448;9.056;2022-12-18T12:40:39;101.45;;;33.72;;
34146;SDS011;20423;49.448;9.056;2022-12-18T12:43:16;102.50;;;33.20;;
34146;SDS011;20423;49.448;9.056;2022-12-18T12:46:04;100.15;;;32.78;;
34146;SDS011;20423;49.448;9.056;2022-12-18T12:51:19;105.95;;;33.00;;
34146;SDS011;20423;49.448;9.056;2022-12-18T12:53:57;97.15;;;32.78;;
34146;SDS011;20423;49.448;9.056;2022-12-18T12:56:35;104.60;;;33.92;;
34146;SDS011;20423;49.448;9.056;2022-12-18T13:02:03;104.47;;;32.80;;
34146;SDS011;20423;49.448;9.056;2022-12-18T13:07:20;98.25;;;30.50;;
34146;SDS011;20423;49.448;9.056;2022-12-18T13:12:51;95.60;;;30.83;;
34146;SDS011;20423;49.448;9.056;2022-12-18T13:15:22;95.78;;;32.22;;
34146;SDS011;20423;49.448;9.056;2022-12-18T13:20:40;98.80;;;32.33;;
34146;SDS011;20423;49.448;9.056;2022-12-18T13:25:48;101.68;;;33.22;;
34146;SDS011;20423;49.448;9.056;2022-12-18T13:34:23;109.43;;;33.83;;
34146;SDS011;20423;49.448;9.056;2022-12-18T13:36:50;104.28;;;34.05;;
34146;SDS011;20423;49.448;9.056;2022-12-18T13:41:43;159.55;;;44.20;;
34146;SDS011;20423;49.448;9.056;2022-12-18T13:46:45;99.13;;;35.60;;
34146;SDS011;20423;49.448;9.056;2022-12-18T13:51:42;116.88;;;39.03;;
34146;SDS011;20423;49.448;9.056;2022-12-18T13:57:39;103.60;;;34.55;;
34146;SDS011;20423;49.448;9.056;2022-12-18T14:00:40;99.72;;;32.60;;
34146;SDS011;20423;49.448;9.056;2022-12-18T14:02:58;117.60;;;36.10;;
34146;SDS011;20423;49.448;9.056;2022-12-18T14:05:28;115.45;;;35.17;;
34146;SDS011;20423;49.448;9.056;2022-12-18T14:08:00;104.38;;;32.83;;
34146;SDS011;20423;49.448;9.056;2022-12-18T14:10:44;110.50;;;36.55;;
34146;SDS011;20423;49.448;9.056;2022-12-18T14:13:15;106.85;;;34.55;;
34146;SDS011;20423;49.448;9.056;2022-12-18T14:15:48;107.63;;;35.95;;
34146;SDS011;20423;49.448;9.056;2022-12-18T14:20:54;117.22;;;37.05;;
34146;SDS011;20423;49.448;9.056;2022-12-18T14:26:39;109.80;;;32.53;;
34146;SDS011;20423;49.448;9.056;2022-12-18T14:34:39;115.83;;;35.10;;
34146;SDS011;20423;49.448;9.056;2022-12-18T14:37:07;107.05;;;34.40;;
34146;SDS011;20423;49.448;9.056;2022-12-18T14:39:35;120.63;;;35.65;;
34146;SDS011;20423;49.448;9.056;2022-12-18T14:42:00;122.18;;;35.80;;
34146;SDS011;20423;49.448;9.056;2022-12-18T14:44:26;108.63;;;35.28;;
34146;SDS011;20423;49.448;9.056;2022-12-18T14:46:52;116.57;;;35.55;;
34146;SDS011;20423;49.448;9.056;2022-12-18T14:52:04;108.82;;;34.50;;
34146;SDS011;20423;49.448;9.056;2022-12-18T14:54:38;130.57;;;38.83;;
34146;SDS011;20423;49.448;9.056;2022-12-18T14:57:23;121.53;;;35.80;;
34146;SDS011;20423;49.448;9.056;2022-12-18T14:59:51;122.47;;;36.50;;
34146;SDS011;20423;49.448;9.056;2022-12-18T15:02:26;119.55;;;36.30;;
34146;SDS011;20423;49.448;9.056;2022-12-18T15:05:04;124.30;;;37.67;;
34146;SDS011;20423;49.448;9.056;2022-12-18T15:08:01;121.82;;;38.88;;
34146;SDS011;20423;49.448;9.056;2022-12-18T15:10:29;130.63;;;41.83;;
34146;SDS011;20423;49.448;9.056;2022-12-18T15:20:53;118.35;;;37.65;;
34146;SDS011;20423;49.448;9.056;2022-12-18T15:23:51;171.65;;;50.40;;
34146;SDS011;20423;49.448;9.056;2022-12-18T15:26:18;135.18;;;37.88;;
34146;SDS011;20423;49.448;9.056;2022-12-18T15:34:19;133.60;;;39.45;;
34146;SDS011;20423;49.448;9.056;2022-12-18T15:36:34;134.20;;;38.30;;
34146;SDS011;20423;49.448;9.056;2022-12-18T15:39:01;132.38;;;38.85;;
34146;SDS011;20423;49.448;9.056;2022-12-18T15:41:28;131.77;;;36.67;;
34146;SDS011;20423;49.448;9.056;2022-12-18T15:43:58;131.77;;;38.07;;
34146;SDS011;20423;49.448;9.056;2022-12-18T15:46:24;144.65;;;39.75;;
34146;SDS011;20423;49.448;9.056;2022-12-18T15:48:58;135.98;;;40.28;;
34146;SDS011;20423;49.448;9.056;2022-12-18T15:51:34;125.35;;;38.45;;
34146;SDS011;20423;49.448;9.056;2022-12-18T15:54:02;136.90;;;39.28;;
34146;SDS011;20423;49.448;9.056;2022-12-18T15:56:29;119.50;;;38.60;;
34146;SDS011;20423;49.448;9.056;2022-12-18T15:59:15;133.35;;;38.90;;
34146;SDS011;20423;49.448;9.056;2022-12-18T16:01:51;128.07;;;39.80;;
34146;SDS011;20423;49.448;9.056;2022-12-18T16:04:21;123.70;;;38.20;;
34146;SDS011;20423;49.448;9.056;2022-12-18T16:06:47;127.97;;;38.10;;
34146;SDS011;20423;49.448;9.056;2022-12-18T16:09:13;120.53;;;35.50;;
34146;SDS011;20423;49.448;9.056;2022-12-18T16:11:41;125.13;;;38.40;;
34146;SDS011;20423;49.448;9.056;2022-12-18T16:16:46;143.60;;;40.92;;
34146;SDS011;20423;49.448;9.056;2022-12-18T16:19:13;142.10;;;41.10;;
34146;SDS011;20423;49.448;9.056;2022-12-18T16:21:39;136.25;;;39.30;;
34146;SDS011;20423;49.448;9.056;2022-12-18T16:24:05;141.68;;;42.40;;
34146;SDS011;20423;49.448;9.056;2022-12-18T16:26:36;139.32;;;40.58;;
34146;SDS011;20423;49.448;9.056;2022-12-18T16:29:02;146.85;;;41.65;;
34146;SDS011;20423;49.448;9.056;2022-12-18T16:31:28;139.85;;;41.33;;
34146;SDS011;20423;49.448;9.056;2022-12-18T16:37:03;130.27;;;40.22;;
34146;SDS011;20423;49.448;9.056;2022-12-18T16:41:57;131.80;;;38.33;;
34146;SDS011;20423;49.448;9.056;2022-12-18T16:44:23;123.25;;;37.17;;
34146;SDS011;20423;49.448;9.056;2022-12-18T16:46:48;136.38;;;41.45;;
34146;SDS011;20423;49.448;9.056;2022-12-18T16:49:14;147.15;;;40.83;;
34146;SDS011;20423;49.448;9.056;2022-12-18T16:51:41;143.48;;;43.33;;
34146;SDS011;20423;49.448;9.056;2022-12-18T16:54:07;143.50;;;40.90;;
34146;SDS011;20423;49.448;9.056;2022-12-18T16:56:33;133.52;;;38.50;;
34146;SDS011;20423;49.448;9.056;2022-12-18T16:59:00;129.52;;;38.83;;
34146;SDS011;20423;49.448;9.056;2022-12-18T17:01:27;140.32;;;39.90;;